CheckWX is a tool to help pilots better visualize weather data.  It is not intended as a substitute for an official pre-flight weather briefing.

19:35:01 UTC

KHDN TAF
Yampa Valley Airport
Hayden, Colorado, USA
KHDN 121726Z 1218/1318 10009KT P6SM SKC FM122200 28006KT P6SM FEW250 FM130200 12005KT P6SM SCT180 FM130400 10010KT P6SM FEW180 SCT250 FM131500 11006KT P6SM BKN250

Nov-12@
18:00 UTC

Nov-12 @ 18:00 UTC

Nov-12@
22:00 UTC

Nov-12 @ 22:00 UTC

KHDN 121726Z 1218/1318 10009KT P6SM SKC
Wind
  • 100° at 9 KTS
Cloud Levels
  • Clear skies

Nov-12@
22:00 UTC

Nov-12 @ 22:00 UTC

Nov-13@
02:00 UTC

Nov-13 @ 02:00 UTC

FM122200 28006KT P6SM FEW250

From

From Standard forecast or significant change

Wind
  • 280° at 6 KTS
Cloud Levels
  • Few at 25,000' AGL

Nov-13@
02:00 UTC

Nov-13 @ 02:00 UTC

Nov-13@
04:00 UTC

Nov-13 @ 04:00 UTC

FM130200 12005KT P6SM SCT180

From

From Standard forecast or significant change

Wind
  • 120° at 5 KTS
Cloud Levels
  • Scattered at 18,000' AGL

Nov-13@
04:00 UTC

Nov-13 @ 04:00 UTC

Nov-13@
15:00 UTC

Nov-13 @ 15:00 UTC

FM130400 10010KT P6SM FEW180 SCT250

From

From Standard forecast or significant change

Wind
  • 100° at 10 KTS
Cloud Levels
  • Few at 18,000' AGL
  • Scattered at 25,000' AGL

Nov-13@
15:00 UTC

Nov-13 @ 15:00 UTC

Nov-13@
18:00 UTC

Nov-13 @ 18:00 UTC

FM131500 11006KT P6SM BKN250

From

From Standard forecast or significant change

Wind
  • 110° at 6 KTS
Cloud Levels
  • Broken at 25,000' AGL